createdAt,value
2023-04-20T00:00:48.333Z,7.50
2023-04-20T00:03:18.455Z,13.07
2023-04-20T00:05:49.280Z,16.90
2023-04-20T00:08:17.607Z,9.77
2023-04-20T00:10:46.054Z,8.43
2023-04-20T00:13:13.960Z,9.40
2023-04-20T00:15:41.664Z,10.43
2023-04-20T00:18:09.438Z,6.93
2023-04-20T00:20:37.324Z,6.80
2023-04-20T00:23:06.293Z,11.00
2023-04-20T00:25:34.142Z,7.43
2023-04-20T00:28:02.004Z,7.97
2023-04-20T00:30:29.712Z,8.07
2023-04-20T00:32:58.600Z,7.23
2023-04-20T00:35:26.433Z,8.63
2023-04-20T00:37:54.204Z,9.43
2023-04-20T00:40:21.865Z,11.20
2023-04-20T00:42:49.607Z,8.40
2023-04-20T00:45:18.192Z,9.40
2023-04-20T00:47:46.358Z,12.47
2023-04-20T00:50:14.134Z,8.73
2023-04-20T00:52:42.004Z,8.33
2023-04-20T00:55:09.907Z,9.87
2023-04-20T00:57:39.629Z,8.80
2023-04-20T01:00:08.057Z,9.87
2023-04-20T01:02:37.118Z,12.43
2023-04-20T01:05:05.011Z,11.87
2023-04-20T01:07:34.216Z,8.10
2023-04-20T01:10:02.004Z,43.13
2023-04-20T01:12:29.839Z,12.20
2023-04-20T01:14:57.610Z,8.83
2023-04-20T01:17:26.134Z,9.40
2023-04-20T01:19:53.902Z,6.67
2023-04-20T01:22:21.795Z,12.20
2023-04-20T01:24:49.467Z,16.53
2023-04-20T01:27:17.738Z,8.43
2023-04-20T01:29:45.650Z,8.77
2023-04-20T01:32:13.445Z,9.37
2023-04-20T01:34:41.741Z,11.10
2023-04-20T01:37:09.800Z,9.10
2023-04-20T01:39:40.106Z,13.73
2023-04-20T01:42:08.632Z,11.80
2023-04-20T01:44:36.290Z,11.13
2023-04-20T01:47:04.605Z,11.57
2023-04-20T01:49:32.523Z,7.87
2023-04-20T01:52:00.350Z,10.30
2023-04-20T01:54:28.568Z,12.77
2023-04-20T01:56:56.322Z,8.50
2023-04-20T01:59:24.176Z,8.40
2023-04-20T02:01:52.068Z,11.20
2023-04-20T02:04:20.806Z,10.70
2023-04-20T02:06:48.691Z,11.13
2023-04-20T02:09:17.133Z,13.47
2023-04-20T02:11:45.140Z,11.10
2023-04-20T02:14:12.841Z,9.40
2023-04-20T02:16:41.555Z,7.47
2023-04-20T02:19:09.986Z,9.10
2023-04-20T02:21:38.012Z,9.40
2023-04-20T02:24:06.376Z,8.23
2023-04-20T02:26:34.121Z,10.53
2023-04-20T02:29:01.834Z,9.30
2023-04-20T02:31:29.588Z,7.23
2023-04-20T02:33:57.339Z,8.50
2023-04-20T02:36:28.329Z,7.37
2023-04-20T02:38:56.291Z,7.50
2023-04-20T02:41:24.005Z,10.17
2023-04-20T02:43:51.856Z,8.27
2023-04-20T02:46:20.609Z,8.37
2023-04-20T02:48:49.295Z,7.57
2023-04-20T02:51:17.160Z,7.27
2023-04-20T02:53:47.244Z,4.93
2023-04-20T02:56:28.084Z,8.90
2023-04-20T02:58:59.602Z,5.30
2023-04-20T03:01:47.607Z,8.77
2023-04-20T03:04:19.432Z,8.07
2023-04-20T03:06:55.276Z,17.47
2023-04-20T03:09:28.231Z,9.60
2023-04-20T03:12:02.623Z,7.23
2023-04-20T03:14:52.188Z,6.53
2023-04-20T03:17:25.177Z,9.50
2023-04-20T03:19:53.103Z,9.83
2023-04-20T03:22:21.233Z,10.63
2023-04-20T03:24:53.629Z,6.83
2023-04-20T03:27:51.085Z,6.40
2023-04-20T03:30:19.767Z,8.20
2023-04-20T03:32:52.782Z,6.30
2023-04-20T03:35:21.108Z,10.23
2023-04-20T03:37:49.107Z,9.23
2023-04-20T03:40:16.844Z,8.03
2023-04-20T03:42:44.772Z,8.73
2023-04-20T03:45:12.570Z,8.17
2023-04-20T03:47:40.636Z,8.53
2023-04-20T03:50:08.646Z,12.70
2023-04-20T03:52:36.442Z,10.73
2023-04-20T03:55:06.598Z,13.00
2023-04-20T03:57:36.051Z,10.17
2023-04-20T04:00:05.817Z,8.57
2023-04-20T04:02:46.142Z,8.70
2023-04-20T04:05:18.531Z,8.23
2023-04-20T04:07:46.301Z,11.43
2023-04-20T04:10:14.561Z,8.00
2023-04-20T04:12:42.310Z,8.33
2023-04-20T04:15:10.926Z,14.50
2023-04-20T04:17:47.991Z,13.40
2023-04-20T04:20:15.853Z,9.77
2023-04-20T04:22:45.023Z,12.20
2023-04-20T04:25:42.483Z,10.43
2023-04-20T04:28:14.696Z,9.20
2023-04-20T04:30:52.411Z,16.03
2023-04-20T04:33:20.356Z,18.07
2023-04-20T04:35:50.600Z,13.10
2023-04-20T04:38:18.446Z,12.87
2023-04-20T04:40:49.929Z,13.17
2023-04-20T04:43:19.527Z,13.60
2023-04-20T04:45:58.467Z,15.43
2023-04-20T04:48:27.377Z,18.47
2023-04-20T04:50:55.061Z,22.73
2023-04-20T04:53:22.859Z,19.43
2023-04-20T04:55:50.555Z,23.00
2023-04-20T04:58:18.249Z,21.40
2023-04-20T05:00:45.944Z,23.23
2023-04-20T05:03:13.889Z,23.47
2023-04-20T05:05:41.768Z,24.13
2023-04-20T05:08:09.506Z,23.30
2023-04-20T05:10:37.212Z,17.70
2023-04-20T05:13:04.958Z,16.70
2023-04-20T05:15:32.820Z,16.43
2023-04-20T05:18:02.323Z,14.73
2023-04-20T05:20:30.177Z,18.87
2023-04-20T05:22:58.001Z,20.10
2023-04-20T05:25:25.840Z,24.50
2023-04-20T05:27:53.572Z,25.03
2023-04-20T05:30:22.240Z,39.53
2023-04-20T05:32:52.343Z,32.43
2023-04-20T05:35:21.623Z,35.43
2023-04-20T05:37:49.461Z,28.23
2023-04-20T05:40:17.238Z,33.73
2023-04-20T05:42:44.928Z,20.83
2023-04-20T05:45:12.684Z,23.23
2023-04-20T05:47:40.408Z,23.63
2023-04-20T05:50:08.983Z,21.07
2023-04-20T05:52:36.805Z,26.03
2023-04-20T05:55:04.816Z,21.53
2023-04-20T05:57:32.525Z,24.63
2023-04-20T06:00:00.772Z,20.80
2023-04-20T06:02:40.906Z,22.83
2023-04-20T06:05:10.469Z,20.93
2023-04-20T06:07:38.430Z,17.90
2023-04-20T06:10:06.834Z,20.63
2023-04-20T06:12:35.025Z,18.97
2023-04-20T06:15:03.937Z,24.63
2023-04-20T06:17:31.795Z,21.63
2023-04-20T06:19:59.524Z,20.00
2023-04-20T06:22:27.213Z,18.83
2023-04-20T06:24:55.015Z,19.47
2023-04-20T06:27:22.717Z,19.83
2023-04-20T06:29:50.967Z,17.40
2023-04-20T06:32:18.657Z,18.63
2023-04-20T06:34:47.715Z,17.13
2023-04-20T06:37:15.681Z,19.13
2023-04-20T06:39:43.477Z,30.13
2023-04-20T06:42:11.268Z,16.80
2023-04-20T06:44:41.240Z,13.07
2023-04-20T06:47:08.974Z,15.17
2023-04-20T06:49:37.659Z,10.13
2023-04-20T06:52:06.027Z,11.93
2023-04-20T06:54:33.816Z,14.37
2023-04-20T06:57:01.668Z,9.73
2023-04-20T06:59:29.631Z,7.83
2023-04-20T07:01:57.399Z,11.73
2023-04-20T07:04:25.459Z,7.30
2023-04-20T07:06:54.283Z,9.53
2023-04-20T07:09:23.198Z,12.23
2023-04-20T07:11:50.875Z,12.47
2023-04-20T07:14:18.723Z,12.43
2023-04-20T07:16:46.520Z,10.83
2023-04-20T07:19:14.293Z,14.23
2023-04-20T07:21:42.002Z,16.87
2023-04-20T07:24:10.319Z,10.63
2023-04-20T07:26:38.051Z,14.97
2023-04-20T07:29:06.249Z,11.93
2023-04-20T07:31:35.522Z,9.77
2023-04-20T07:34:03.451Z,16.73
2023-04-20T07:36:31.465Z,12.07
2023-04-20T07:38:59.192Z,11.60
2023-04-20T07:41:26.874Z,12.43
2023-04-20T07:43:54.615Z,11.43
2023-04-20T07:46:22.855Z,9.60
2023-04-20T07:48:52.156Z,9.60
2023-04-20T07:51:19.973Z,14.57
2023-04-20T07:53:48.697Z,30.57
2023-04-20T07:56:16.360Z,16.20
2023-04-20T07:58:44.200Z,14.40
2023-04-20T08:01:14.366Z,12.43
2023-04-20T08:03:43.393Z,16.83
2023-04-20T08:06:11.201Z,11.10
2023-04-20T08:08:38.975Z,11.63
2023-04-20T08:11:08.152Z,10.17
2023-04-20T08:13:36.709Z,8.77
2023-04-20T08:16:04.657Z,16.07
2023-04-20T08:18:32.488Z,22.17
2023-04-20T08:21:00.310Z,8.73
2023-04-20T08:23:28.692Z,11.20
2023-04-20T08:25:56.759Z,7.37
2023-04-20T08:30:57.532Z,8.87
2023-04-20T08:33:25.921Z,7.07
2023-04-20T08:35:54.347Z,6.47
2023-04-20T08:38:32.764Z,9.10
2023-04-20T08:41:02.291Z,7.47
2023-04-20T08:43:30.037Z,6.97
2023-04-20T08:45:59.310Z,6.67
2023-04-20T08:48:27.402Z,7.87
2023-04-20T08:50:55.644Z,5.37
2023-04-20T08:53:23.383Z,12.67
2023-04-20T08:55:51.326Z,7.60
2023-04-20T08:58:19.049Z,4.97
2023-04-20T09:00:49.931Z,4.17
2023-04-20T09:03:17.848Z,4.90
2023-04-20T09:05:46.558Z,4.20
2023-04-20T09:08:15.668Z,8.87
2023-04-20T09:10:44.112Z,5.27
2023-04-20T09:13:24.100Z,5.50
2023-04-20T09:15:51.964Z,5.37
2023-04-20T09:18:19.887Z,6.57
2023-04-20T09:20:47.632Z,4.40
2023-04-20T09:23:19.120Z,3.97
2023-04-20T09:25:50.104Z,3.33
2023-04-20T09:28:18.305Z,3.80
2023-04-20T09:30:47.369Z,3.73
2023-04-20T09:33:15.403Z,3.30
2023-04-20T09:35:43.734Z,3.58
2023-04-20T09:38:15.342Z,2.83
2023-04-20T09:40:43.167Z,3.20
2023-04-20T09:43:15.403Z,2.65
2023-04-20T09:45:43.369Z,5.30
2023-04-20T09:48:11.151Z,2.97
2023-04-20T09:50:48.412Z,3.60
2023-04-20T09:53:17.293Z,3.17
2023-04-20T09:55:47.207Z,5.28
2023-04-20T09:58:15.003Z,2.83
2023-04-20T10:00:43.081Z,3.75
2023-04-20T10:03:11.459Z,2.72
2023-04-20T10:05:39.962Z,2.67
2023-04-20T10:08:07.888Z,3.00
2023-04-20T10:10:46.302Z,3.70
2023-04-20T10:13:14.670Z,2.60
2023-04-20T10:15:42.528Z,3.35
2023-04-20T10:18:23.467Z,3.17
2023-04-20T10:20:51.952Z,2.60
2023-04-20T10:23:20.254Z,2.88
2023-04-20T10:26:01.773Z,2.65
2023-04-20T10:28:42.868Z,3.25
2023-04-20T10:31:15.584Z,3.00
2023-04-20T10:33:51.906Z,3.70
2023-04-20T10:36:37.265Z,3.67
2023-04-20T10:39:26.108Z,3.85
2023-04-20T10:41:54.554Z,6.68
2023-04-20T10:44:22.354Z,6.75
2023-04-20T10:46:51.038Z,6.35
2023-04-20T10:49:19.259Z,4.93
2023-04-20T10:51:50.804Z,2.55
2023-04-20T10:54:18.706Z,7.10
2023-04-20T10:56:47.446Z,4.70
2023-04-20T10:59:19.157Z,3.43
2023-04-20T11:01:47.310Z,3.25
2023-04-20T11:04:18.347Z,3.13
2023-04-20T11:06:48.110Z,2.97
2023-04-20T11:09:28.416Z,62.72
2023-04-20T11:12:04.207Z,18.90
2023-04-20T11:14:38.383Z,8.20
2023-04-20T11:17:06.282Z,3.42
2023-04-20T11:19:34.984Z,11.15
2023-04-20T11:22:03.731Z,5.37
2023-04-20T11:24:32.808Z,2.78
2023-04-20T11:27:01.971Z,3.03
2023-04-20T11:29:36.728Z,3.08
2023-04-20T11:32:08.475Z,6.32
2023-04-20T11:34:37.313Z,6.23
2023-04-20T11:37:08.469Z,13.50
2023-04-20T11:39:36.687Z,10.15
2023-04-20T11:42:04.893Z,5.33
2023-04-20T11:44:33.007Z,8.50
2023-04-20T11:47:01.921Z,5.97
2023-04-20T11:49:29.684Z,3.67
2023-04-20T11:51:57.421Z,5.57
2023-04-20T11:54:27.271Z,3.90
2023-04-20T11:56:55.167Z,4.43
2023-04-20T11:59:22.865Z,4.07
2023-04-20T12:01:50.634Z,2.33
2023-04-20T12:04:18.554Z,5.43
2023-04-20T12:06:46.571Z,2.77
2023-04-20T12:09:14.864Z,2.50
2023-04-20T12:11:42.636Z,2.00
2023-04-20T12:14:10.309Z,2.07
2023-04-20T12:16:38.112Z,2.47
2023-04-20T12:19:05.832Z,3.83
2023-04-20T12:21:33.523Z,1.97
2023-04-20T12:24:01.788Z,7.63
2023-04-20T12:26:37.820Z,5.67
2023-04-20T12:29:07.226Z,20.13
2023-04-20T12:31:35.944Z,19.23
2023-04-20T12:34:04.222Z,18.50
2023-04-20T12:36:32.546Z,10.23
2023-04-20T12:39:00.724Z,4.40
2023-04-20T12:41:28.484Z,3.13
2023-04-20T12:43:56.473Z,3.97
2023-04-20T12:46:24.218Z,4.73
2023-04-20T12:48:52.154Z,5.70
2023-04-20T12:51:19.872Z,3.77
2023-04-20T12:53:47.606Z,5.80
2023-04-20T12:56:16.806Z,4.47
2023-04-20T12:58:44.768Z,4.73
2023-04-20T13:01:12.511Z,6.33
2023-04-20T13:03:42.534Z,3.13
2023-04-20T13:06:14.101Z,2.83
2023-04-20T13:08:42.243Z,3.03
2023-04-20T13:11:15.405Z,2.30
2023-04-20T13:13:43.147Z,6.87
2023-04-20T13:16:11.010Z,2.03
2023-04-20T13:18:38.756Z,4.23
2023-04-20T13:21:06.462Z,2.20
2023-04-20T13:23:34.321Z,2.20
2023-04-20T13:26:02.052Z,1.77
2023-04-20T13:28:29.886Z,2.93
2023-04-20T13:30:57.664Z,3.00
2023-04-20T13:33:25.914Z,4.93
2023-04-20T13:35:53.681Z,2.47
2023-04-20T13:38:21.873Z,2.63
2023-04-20T13:40:49.630Z,2.40
2023-04-20T13:43:19.378Z,2.60
2023-04-20T13:45:48.631Z,2.60
2023-04-20T13:48:16.454Z,4.33
2023-04-20T13:50:44.201Z,3.67
2023-04-20T13:53:11.970Z,3.57
2023-04-20T13:55:40.111Z,5.07
2023-04-20T13:58:07.887Z,2.70
2023-04-20T14:00:35.582Z,7.17
2023-04-20T14:03:05.571Z,5.63
2023-04-20T14:05:33.352Z,2.67
2023-04-20T14:08:01.751Z,3.23
2023-04-20T14:10:29.672Z,3.87
2023-04-20T14:12:57.496Z,3.00
2023-04-20T14:15:25.403Z,34.23
2023-04-20T14:17:53.222Z,17.53
2023-04-20T14:20:21.318Z,9.50
2023-04-20T14:22:49.081Z,11.37
2023-04-20T14:25:16.889Z,9.23
2023-04-20T14:27:44.759Z,3.87
2023-04-20T14:30:13.158Z,5.23
2023-04-20T14:32:41.438Z,4.97
2023-04-20T14:35:09.341Z,3.27
2023-04-20T14:37:37.189Z,2.83
2023-04-20T14:40:07.244Z,2.90
2023-04-20T14:42:35.028Z,7.83
2023-04-20T14:45:02.758Z,3.53
2023-04-20T14:47:30.740Z,3.20
2023-04-20T14:49:58.716Z,3.43
2023-04-20T14:52:26.875Z,4.03
2023-04-20T14:54:54.667Z,5.93
2023-04-20T14:57:22.569Z,4.53
2023-04-20T14:59:50.285Z,5.37
2023-04-20T15:02:20.863Z,7.10
2023-04-20T15:04:48.932Z,18.27
2023-04-20T15:07:17.908Z,5.37
2023-04-20T15:09:45.988Z,5.37
2023-04-20T15:12:13.749Z,4.37
2023-04-20T15:14:41.667Z,3.07
2023-04-20T15:17:09.423Z,3.57
2023-04-20T15:19:37.170Z,3.90
2023-04-20T15:22:04.865Z,3.40
2023-04-20T15:24:32.892Z,4.60
2023-04-20T15:27:01.601Z,14.37
2023-04-20T15:29:29.621Z,7.80
2023-04-20T15:31:57.425Z,7.10
2023-04-20T15:34:25.496Z,11.13
2023-04-20T15:36:53.163Z,147.43
2023-04-20T15:39:20.991Z,44.83
2023-04-20T15:41:48.649Z,17.90
2023-04-20T15:44:16.783Z,26.20
2023-04-20T15:46:44.769Z,10.37
2023-04-20T15:49:12.490Z,14.83
2023-04-20T15:51:40.913Z,9.30
2023-04-20T15:54:09.752Z,12.10
2023-04-20T15:56:37.458Z,14.53
2023-04-20T15:59:05.394Z,5.87
2023-04-20T16:01:33.713Z,4.33
2023-04-20T16:04:01.833Z,4.13
2023-04-20T16:06:29.723Z,6.23
2023-04-20T16:08:57.769Z,10.63
2023-04-20T16:11:25.528Z,4.23
2023-04-20T16:13:55.454Z,3.60
2023-04-20T16:16:23.216Z,7.77
2023-04-20T16:18:52.088Z,5.63
2023-04-20T16:21:19.801Z,5.07
2023-04-20T16:23:47.696Z,3.47
2023-04-20T16:26:16.107Z,7.50
2023-04-20T16:28:43.840Z,5.80
2023-04-20T16:31:11.680Z,10.00
2023-04-20T16:33:39.763Z,7.30
2023-04-20T16:36:07.769Z,5.27
2023-04-20T16:38:35.542Z,5.67
2023-04-20T16:41:03.530Z,4.87
2023-04-20T16:43:31.540Z,6.37
2023-04-20T16:45:59.251Z,8.30
2023-04-20T16:48:27.069Z,3.60
2023-04-20T16:50:54.778Z,3.90
2023-04-20T16:53:22.534Z,4.13
2023-04-20T16:55:50.420Z,6.10
2023-04-20T16:58:18.166Z,5.20
2023-04-20T17:00:45.912Z,12.57
2023-04-20T17:03:15.061Z,6.20
2023-04-20T17:05:42.984Z,6.13
2023-04-20T17:08:10.810Z,9.07
2023-04-20T17:10:39.317Z,12.17
2023-04-20T17:13:07.142Z,11.17
2023-04-20T17:15:34.857Z,9.93
2023-04-20T17:18:02.696Z,11.50
2023-04-20T17:20:30.602Z,39.90
2023-04-20T17:22:58.411Z,15.10
2023-04-20T17:25:26.201Z,12.20
2023-04-20T17:27:53.979Z,8.60
2023-04-20T17:30:21.684Z,8.53
2023-04-20T17:32:49.371Z,14.97
2023-04-20T17:35:17.434Z,7.80
2023-04-20T17:37:45.730Z,9.63
2023-04-20T17:40:13.460Z,10.50
2023-04-20T17:42:41.224Z,9.90
2023-04-20T17:45:09.221Z,8.00
2023-04-20T17:47:37.038Z,11.63
2023-04-20T17:50:05.285Z,7.00
2023-04-20T17:52:33.040Z,6.10
2023-04-20T17:55:00.926Z,5.80
2023-04-20T17:57:29.021Z,7.27
2023-04-20T17:59:56.756Z,7.87
2023-04-20T18:02:25.036Z,6.20
2023-04-20T18:04:55.236Z,7.23
2023-04-20T18:07:23.030Z,7.57
2023-04-20T18:09:50.760Z,6.27
2023-04-20T18:12:18.446Z,6.67
2023-04-20T18:14:46.244Z,8.43
2023-04-20T18:17:14.022Z,72.37
2023-04-20T18:19:41.817Z,69.90
2023-04-20T18:22:09.515Z,12.57
2023-04-20T18:24:38.000Z,12.83
2023-04-20T18:27:05.726Z,12.63
2023-04-20T18:29:33.465Z,15.47
2023-04-20T18:32:01.499Z,11.97
2023-04-20T18:34:31.952Z,9.43
2023-04-20T18:36:59.738Z,7.47
2023-04-20T18:39:27.527Z,8.63
2023-04-20T18:41:55.351Z,9.77
2023-04-20T18:44:23.279Z,11.00
2023-04-20T18:46:51.393Z,13.23
2023-04-20T18:49:19.209Z,18.97
2023-04-20T18:51:47.130Z,17.37
2023-04-20T18:54:14.821Z,10.70
2023-04-20T18:56:42.532Z,8.23
2023-04-20T18:59:10.825Z,17.27
2023-04-20T19:01:40.569Z,49.93
2023-04-20T19:04:08.971Z,64.77
2023-04-20T19:06:36.790Z,82.00
2023-04-20T19:09:07.305Z,77.73
2023-04-20T19:11:35.783Z,64.03
2023-04-20T19:14:03.482Z,60.03
2023-04-20T19:16:31.764Z,56.73
2023-04-20T19:18:59.681Z,37.83
2023-04-20T19:21:27.461Z,43.17
2023-04-20T19:23:55.605Z,33.43
2023-04-20T19:26:24.161Z,31.80
2023-04-20T19:28:51.999Z,33.60
2023-04-20T19:31:19.809Z,34.23
2023-04-20T19:33:47.562Z,43.20
2023-04-20T19:36:15.281Z,38.40
2023-04-20T19:38:45.911Z,42.00
2023-04-20T19:41:13.711Z,33.23
2023-04-20T19:43:41.381Z,48.57
2023-04-20T19:46:09.841Z,50.77
2023-04-20T19:48:37.815Z,87.37
2023-04-20T19:51:06.630Z,104.50
2023-04-20T19:53:34.539Z,99.63
2023-04-20T19:56:04.199Z,83.70
2023-04-20T19:58:33.409Z,87.13
2023-04-20T20:01:01.257Z,86.67
2023-04-20T20:03:29.320Z,74.57
2023-04-20T20:05:57.175Z,66.80
2023-04-20T20:08:24.881Z,74.47
2023-04-20T20:10:52.766Z,70.73
2023-04-20T20:13:20.564Z,64.20
2023-04-20T20:15:48.307Z,55.97
2023-04-20T20:18:16.166Z,53.43
2023-04-20T20:20:43.873Z,51.47
2023-04-20T20:23:11.627Z,39.47
2023-04-20T20:25:39.927Z,40.03
2023-04-20T20:28:07.652Z,38.13
2023-04-20T20:30:35.436Z,41.23
2023-04-20T20:33:03.732Z,53.47
2023-04-20T20:35:33.270Z,67.90
2023-04-20T20:38:01.151Z,55.27
2023-04-20T20:40:28.917Z,52.87
2023-04-20T20:42:57.486Z,50.80
2023-04-20T20:45:25.213Z,41.73
2023-04-20T20:47:52.943Z,37.27
2023-04-20T20:50:20.798Z,33.87
2023-04-20T20:52:48.889Z,39.23
2023-04-20T20:55:16.609Z,37.63
2023-04-20T20:57:44.426Z,36.30
2023-04-20T21:00:12.570Z,31.47
2023-04-20T21:02:40.471Z,33.13
2023-04-20T21:05:08.964Z,35.50
2023-04-20T21:07:36.699Z,36.03
2023-04-20T21:10:04.800Z,35.27
2023-04-20T21:12:32.522Z,28.97
2023-04-20T21:15:00.551Z,28.43
2023-04-20T21:17:28.250Z,27.00
2023-04-20T21:19:56.081Z,25.50
2023-04-20T21:22:23.762Z,23.20
2023-04-20T21:24:51.490Z,23.10
2023-04-20T21:27:19.173Z,19.50
2023-04-20T21:29:46.934Z,16.13
2023-04-20T21:32:14.658Z,19.57
2023-04-20T21:34:42.470Z,27.87
2023-04-20T21:37:11.093Z,17.67
2023-04-20T21:39:38.865Z,13.63
2023-04-20T21:42:06.603Z,14.93
2023-04-20T21:44:34.334Z,15.73
2023-04-20T21:47:02.751Z,11.23
2023-04-20T21:49:30.581Z,13.80
2023-04-20T21:51:58.249Z,10.43
2023-04-20T21:54:25.960Z,9.43
2023-04-20T21:56:53.661Z,9.00
2023-04-20T21:59:21.372Z,8.80
2023-04-20T22:01:49.079Z,6.33
2023-04-20T22:04:17.226Z,16.20
2023-04-20T22:06:45.600Z,19.73
2023-04-20T22:09:13.448Z,8.97
2023-04-20T22:11:41.143Z,9.93
2023-04-20T22:14:08.886Z,12.37
2023-04-20T22:16:36.648Z,10.30
2023-04-20T22:19:04.593Z,5.60
2023-04-20T22:21:32.270Z,19.60
2023-04-20T22:23:59.967Z,8.57
2023-04-20T22:26:27.651Z,5.30
2023-04-20T22:28:55.408Z,4.77
2023-04-20T22:31:23.128Z,5.97
2023-04-20T22:33:50.872Z,4.80
2023-04-20T22:36:18.570Z,4.20
2023-04-20T22:38:46.321Z,3.77
2023-04-20T22:41:16.678Z,6.33
2023-04-20T22:43:45.186Z,9.47
2023-04-20T22:46:12.917Z,7.30
2023-04-20T22:48:41.764Z,10.47
2023-04-20T22:51:09.412Z,11.90
2023-04-20T22:53:37.092Z,13.27
2023-04-20T22:56:08.020Z,11.57
2023-04-20T22:58:35.819Z,9.00
2023-04-20T23:01:03.570Z,7.10
2023-04-20T23:03:32.140Z,6.80
2023-04-20T23:06:00.256Z,4.93
2023-04-20T23:08:28.342Z,7.00
2023-04-20T23:10:56.191Z,6.03
2023-04-20T23:13:26.416Z,7.70
2023-04-20T23:15:54.473Z,7.90
2023-04-20T23:18:22.247Z,6.63
2023-04-20T23:20:49.966Z,8.30
2023-04-20T23:23:18.068Z,5.00
2023-04-20T23:25:45.843Z,8.93
2023-04-20T23:28:13.499Z,5.23
2023-04-20T23:30:41.342Z,7.23
2023-04-20T23:33:09.115Z,11.23
2023-04-20T23:35:36.990Z,48.53
2023-04-20T23:38:04.729Z,7.83
2023-04-20T23:40:32.425Z,5.83
2023-04-20T23:43:00.174Z,10.83
2023-04-20T23:45:28.033Z,15.23
2023-04-20T23:47:56.022Z,5.30
2023-04-20T23:50:23.792Z,5.30
2023-04-20T23:52:51.535Z,6.93
2023-04-20T23:55:19.313Z,4.10
2023-04-20T23:57:47.061Z,6.73
